createdAt,value
2024-05-09T00:00:43.755Z,7.28
2024-05-09T00:03:12.030Z,7.20
2024-05-09T00:05:44.265Z,6.72
2024-05-09T00:08:11.894Z,7.13
2024-05-09T00:10:40.297Z,6.63
2024-05-09T00:13:09.625Z,5.95
2024-05-09T00:15:37.294Z,5.97
2024-05-09T00:18:06.626Z,5.53
2024-05-09T00:23:02.549Z,6.30
2024-05-09T00:25:29.543Z,6.30
2024-05-09T00:27:56.427Z,5.43
2024-05-09T00:30:31.653Z,6.10
2024-05-09T00:33:02.284Z,6.07
2024-05-09T00:35:29.603Z,5.38
2024-05-09T00:37:56.704Z,5.57
2024-05-09T00:40:35.240Z,5.53
2024-05-09T00:43:06.799Z,5.07
2024-05-09T00:45:36.867Z,5.32
2024-05-09T00:48:07.544Z,5.07
2024-05-09T00:50:40.490Z,5.45
2024-05-09T00:53:11.206Z,5.82
2024-05-09T00:55:39.704Z,4.65
2024-05-09T00:58:09.620Z,5.30
2024-05-09T01:00:39.989Z,4.95
2024-05-09T01:03:13.308Z,5.20
2024-05-09T01:08:10.883Z,4.65
2024-05-09T01:10:38.680Z,5.25
2024-05-09T01:13:07.260Z,5.38
2024-05-09T01:15:35.529Z,5.35
2024-05-09T01:18:13.209Z,5.65
2024-05-09T01:20:43.726Z,5.07
2024-05-09T01:23:14.872Z,5.72
2024-05-09T01:25:44.206Z,5.93
2024-05-09T01:28:11.428Z,6.03
2024-05-09T01:30:38.754Z,5.30
2024-05-09T01:33:08.784Z,5.60
2024-05-09T01:35:38.919Z,5.00
2024-05-09T01:38:06.945Z,5.50
2024-05-09T01:40:38.532Z,5.45
2024-05-09T01:45:36.566Z,5.45
2024-05-09T01:48:04.254Z,5.00
2024-05-09T01:53:01.540Z,5.70
2024-05-09T01:55:28.558Z,5.43
2024-05-09T01:57:55.527Z,4.68
2024-05-09T02:00:33.802Z,5.00
2024-05-09T02:03:15.277Z,4.88
2024-05-09T02:05:46.736Z,4.63
2024-05-09T02:08:16.179Z,4.28
2024-05-09T02:10:44.772Z,5.18
2024-05-09T02:13:12.696Z,4.75
2024-05-09T02:15:39.786Z,5.35
2024-05-09T02:18:08.020Z,6.20
2024-05-09T02:20:38.700Z,5.80
2024-05-09T02:23:08.542Z,5.88
2024-05-09T02:25:35.672Z,5.55
2024-05-09T02:28:02.970Z,6.03
2024-05-09T02:30:38.656Z,5.90
2024-05-09T02:33:11.425Z,6.22
2024-05-09T02:35:40.378Z,4.43
2024-05-09T02:38:08.971Z,5.82
2024-05-09T02:40:38.400Z,6.20
2024-05-09T02:43:08.544Z,6.30
2024-05-09T02:45:36.774Z,6.97
2024-05-09T02:48:04.257Z,6.53
2024-05-09T02:50:37.852Z,5.43
2024-05-09T02:53:14.583Z,6.40
2024-05-09T02:55:42.825Z,7.03
2024-05-09T02:58:10.760Z,6.18
2024-05-09T03:00:41.212Z,6.32
2024-05-09T03:03:13.192Z,5.95
2024-05-09T03:05:44.134Z,4.43
2024-05-09T03:08:11.711Z,6.63
2024-05-09T03:10:39.577Z,6.20
2024-05-09T03:13:12.940Z,6.45
2024-05-09T03:15:41.179Z,5.50
2024-05-09T03:18:08.717Z,6.00
2024-05-09T03:20:36.903Z,6.20
2024-05-09T03:23:09.556Z,6.63
2024-05-09T03:28:05.374Z,5.93
2024-05-09T03:30:40.068Z,5.70
2024-05-09T03:33:20.575Z,6.30
2024-05-09T03:35:49.266Z,5.95
2024-05-09T03:38:17.052Z,5.40
2024-05-09T03:40:51.122Z,6.35
2024-05-09T03:43:19.977Z,5.72
2024-05-09T03:45:48.844Z,5.38
2024-05-09T03:48:16.203Z,5.60
2024-05-09T03:50:43.354Z,5.38
2024-05-09T03:53:12.856Z,5.55
2024-05-09T03:55:40.345Z,5.97
2024-05-09T03:58:08.144Z,5.57
2024-05-09T04:00:38.994Z,5.95
2024-05-09T04:03:10.566Z,5.45
2024-05-09T04:05:41.928Z,5.95
2024-05-09T04:08:10.240Z,6.60
2024-05-09T04:10:37.681Z,5.85
2024-05-09T04:13:04.909Z,5.78
2024-05-09T04:15:32.390Z,6.07
2024-05-09T04:18:00.216Z,6.03
2024-05-09T04:20:37.136Z,5.75
2024-05-09T04:23:10.069Z,5.78
2024-05-09T04:25:37.774Z,6.32
2024-05-09T04:28:05.432Z,5.60
2024-05-09T04:30:38.450Z,5.38
2024-05-09T04:33:10.440Z,5.53
2024-05-09T04:35:39.664Z,5.45
2024-05-09T04:38:07.010Z,5.30
2024-05-09T04:40:36.623Z,5.22
2024-05-09T04:43:14.438Z,5.63
2024-05-09T04:45:41.715Z,5.03
2024-05-09T04:48:09.118Z,5.60
2024-05-09T04:50:38.867Z,5.10
2024-05-09T04:53:10.072Z,5.32
2024-05-09T04:55:38.558Z,5.40
2024-05-09T04:58:09.093Z,5.55
2024-05-09T05:00:38.729Z,5.53
2024-05-09T05:03:10.545Z,5.80
2024-05-09T05:05:40.715Z,5.70
2024-05-09T05:08:13.401Z,6.05
2024-05-09T05:10:41.638Z,5.65
2024-05-09T05:13:22.837Z,5.72
2024-05-09T05:15:58.304Z,6.22
2024-05-09T05:18:27.879Z,5.72
2024-05-09T05:20:56.670Z,6.15
2024-05-09T05:23:24.417Z,5.88
2024-05-09T05:25:53.351Z,6.50
2024-05-09T05:28:21.509Z,6.43
2024-05-09T05:30:48.519Z,6.70
2024-05-09T05:33:18.769Z,6.93
2024-05-09T05:35:46.330Z,6.40
2024-05-09T05:38:13.389Z,6.15
2024-05-09T05:40:41.135Z,5.63
2024-05-09T05:43:15.448Z,6.60
2024-05-09T05:45:42.374Z,5.95
2024-05-09T05:48:09.914Z,6.38
2024-05-09T05:50:38.384Z,6.45
2024-05-09T05:53:07.882Z,6.22
2024-05-09T05:55:39.948Z,6.40
2024-05-09T05:58:14.764Z,6.47
2024-05-09T06:00:42.742Z,5.90
2024-05-09T06:03:12.327Z,6.22
2024-05-09T06:05:40.726Z,6.03
2024-05-09T06:08:08.329Z,6.25
2024-05-09T06:10:39.196Z,5.45
2024-05-09T06:13:12.393Z,4.32
2024-05-09T06:15:43.444Z,4.93
2024-05-09T06:18:12.363Z,5.18
2024-05-09T06:20:41.959Z,5.03
2024-05-09T06:23:10.575Z,5.32
2024-05-09T06:25:38.111Z,5.18
2024-05-09T06:28:05.769Z,5.05
2024-05-09T06:30:39.353Z,4.82
2024-05-09T06:33:11.743Z,4.47
2024-05-09T06:35:41.021Z,4.50
2024-05-09T06:38:11.706Z,4.40
2024-05-09T06:40:41.909Z,5.05
2024-05-09T06:43:18.954Z,4.75
2024-05-09T06:45:48.712Z,4.03
2024-05-09T06:48:19.327Z,4.38
2024-05-09T06:50:47.124Z,4.55
2024-05-09T06:53:15.296Z,4.68
2024-05-09T06:55:42.571Z,4.60
2024-05-09T06:58:09.848Z,4.60
2024-05-09T07:00:39.958Z,5.88
2024-05-09T07:03:16.296Z,4.30
2024-05-09T07:05:46.794Z,4.43
2024-05-09T07:08:14.927Z,4.45
2024-05-09T07:10:42.058Z,4.70
2024-05-09T07:13:14.033Z,4.35
2024-05-09T07:15:43.185Z,4.93
2024-05-09T07:18:17.279Z,4.18
2024-05-09T07:20:46.915Z,4.40
2024-05-09T07:23:15.170Z,4.40
2024-05-09T07:25:42.722Z,4.47
2024-05-09T07:28:16.128Z,4.90
2024-05-09T07:30:44.555Z,4.65
2024-05-09T07:33:23.415Z,4.20
2024-05-09T07:35:51.785Z,3.80
2024-05-09T07:38:19.142Z,3.97
2024-05-09T07:40:46.643Z,3.80
2024-05-09T07:43:16.661Z,4.30
2024-05-09T07:45:52.352Z,3.90
2024-05-09T07:52:38.246Z,3.75
2024-05-09T07:53:48.175Z,3.70
2024-05-09T07:56:20.261Z,4.03
2024-05-09T07:58:51.364Z,4.30
2024-05-09T08:01:19.141Z,3.97
2024-05-09T08:03:46.653Z,4.53
2024-05-09T08:06:14.040Z,3.88
2024-05-09T08:08:41.040Z,4.50
2024-05-09T08:11:08.067Z,4.00
2024-05-09T08:13:35.009Z,4.20
2024-05-09T08:16:02.019Z,5.63
2024-05-09T08:18:29.214Z,4.53
2024-05-09T08:20:56.359Z,5.15
2024-05-09T08:23:23.788Z,4.15
2024-05-09T08:25:52.948Z,5.10
2024-05-09T08:28:20.119Z,5.70
2024-05-09T08:30:47.391Z,5.82
2024-05-09T08:33:14.595Z,5.97
2024-05-09T08:35:41.652Z,5.70
2024-05-09T08:38:09.246Z,5.72
2024-05-09T08:40:37.860Z,5.47
2024-05-09T08:43:11.517Z,5.40
2024-05-09T08:45:44.111Z,5.70
2024-05-09T08:48:15.108Z,4.75
2024-05-09T08:50:44.227Z,5.07
2024-05-09T08:53:12.053Z,4.88
2024-05-09T08:55:42.910Z,5.03
2024-05-09T08:58:16.071Z,4.50
2024-05-09T09:00:45.511Z,5.70
2024-05-09T09:03:19.055Z,4.80
2024-05-09T09:06:08.792Z,5.55
2024-05-09T09:08:39.259Z,4.95
2024-05-09T09:11:06.785Z,4.85
2024-05-09T09:13:33.754Z,5.35
2024-05-09T09:16:02.759Z,5.75
2024-05-09T09:18:30.456Z,8.77
2024-05-09T09:20:57.756Z,6.10
2024-05-09T09:23:29.753Z,5.82
2024-05-09T09:26:00.571Z,7.07
2024-05-09T09:28:27.734Z,6.40
2024-05-09T09:31:03.306Z,5.60
2024-05-09T09:33:31.479Z,4.80
2024-05-09T09:35:59.305Z,4.00
2024-05-09T09:38:30.878Z,4.63
2024-05-09T09:41:00.027Z,4.20
2024-05-09T09:43:27.819Z,3.92
2024-05-09T09:45:55.897Z,4.35
2024-05-09T09:48:23.652Z,3.70
2024-05-09T09:50:55.528Z,4.00
2024-05-09T09:53:23.936Z,3.90
2024-05-09T09:55:52.885Z,4.07
2024-05-09T09:58:20.261Z,3.53
2024-05-09T10:00:47.539Z,3.28
2024-05-09T10:03:14.680Z,4.68
2024-05-09T10:05:45.340Z,4.20
2024-05-09T10:08:15.090Z,4.00
2024-05-09T10:10:47.598Z,4.47
2024-05-09T10:13:15.471Z,3.67
2024-05-09T10:15:53.390Z,3.58
2024-05-09T10:18:28.285Z,4.00
2024-05-09T10:20:57.333Z,3.45
2024-05-09T10:23:36.502Z,3.28
2024-05-09T10:26:06.525Z,3.30
2024-05-09T10:28:36.979Z,3.42
2024-05-09T10:31:13.004Z,2.88
2024-05-09T10:33:51.029Z,3.13
2024-05-09T10:36:24.608Z,3.30
2024-05-09T10:38:54.117Z,3.35
2024-05-09T10:41:22.870Z,3.50
2024-05-09T10:43:51.084Z,3.50
2024-05-09T10:46:21.478Z,2.95
2024-05-09T10:48:49.063Z,3.58
2024-05-09T10:51:19.500Z,4.10
2024-05-09T10:53:48.371Z,3.42
2024-05-09T10:56:16.304Z,3.70
2024-05-09T10:58:43.314Z,3.28
2024-05-09T11:01:10.903Z,3.85
2024-05-09T11:03:39.249Z,3.80
2024-05-09T11:06:07.246Z,3.60
2024-05-09T11:08:35.202Z,3.67
2024-05-09T11:11:07.151Z,3.92
2024-05-09T11:13:36.952Z,3.08
2024-05-09T11:16:05.907Z,3.45
2024-05-09T11:18:37.837Z,3.15
2024-05-09T11:21:13.490Z,3.35
2024-05-09T11:23:41.080Z,3.50
2024-05-09T11:26:09.105Z,3.13
2024-05-09T11:28:36.251Z,2.95
2024-05-09T11:31:09.952Z,2.97
2024-05-09T11:33:47.536Z,3.20
2024-05-09T11:36:15.371Z,3.45
2024-05-09T11:38:42.707Z,3.30
2024-05-09T11:41:17.070Z,3.03
2024-05-09T11:43:44.392Z,3.05
2024-05-09T11:46:11.690Z,3.10
2024-05-09T11:48:40.063Z,3.00
2024-05-09T11:51:07.378Z,3.00
2024-05-09T11:53:34.365Z,3.33
2024-05-09T11:56:01.308Z,3.40
2024-05-09T11:58:29.914Z,2.67
2024-05-09T12:00:57.215Z,3.10
2024-05-09T12:03:24.486Z,2.75
2024-05-09T12:05:51.752Z,3.25
2024-05-09T12:08:19.515Z,2.78
2024-05-09T12:10:46.785Z,2.72
2024-05-09T12:13:13.990Z,2.83
2024-05-09T12:15:40.986Z,3.00
2024-05-09T12:18:08.495Z,3.08
2024-05-09T12:20:38.655Z,2.63
2024-05-09T12:23:09.986Z,2.83
2024-05-09T12:25:39.055Z,3.33
2024-05-09T12:28:07.656Z,2.95
2024-05-09T12:30:38.743Z,3.03
2024-05-09T12:33:12.488Z,2.80
2024-05-09T12:35:43.357Z,2.72
2024-05-09T12:38:13.198Z,2.88
2024-05-09T12:40:40.248Z,2.80
2024-05-09T12:43:08.737Z,2.95
2024-05-09T12:45:37.633Z,2.75
2024-05-09T12:48:08.284Z,3.00
2024-05-09T12:50:36.825Z,3.03
2024-05-09T12:53:05.204Z,2.78
2024-05-09T12:55:40.883Z,2.45
2024-05-09T13:00:46.930Z,3.17
2024-05-09T13:03:14.650Z,2.83
2024-05-09T13:05:44.638Z,3.58
2024-05-09T13:08:12.989Z,2.92
2024-05-09T13:10:40.090Z,2.63
2024-05-09T13:13:07.282Z,2.92
2024-05-09T13:15:34.884Z,2.80
2024-05-09T13:18:03.503Z,3.30
2024-05-09T13:20:34.523Z,2.67
2024-05-09T13:23:08.300Z,2.90
2024-05-09T13:25:37.660Z,2.78
2024-05-09T13:28:06.676Z,3.05
2024-05-09T13:30:39.516Z,2.65
2024-05-09T13:33:13.694Z,3.67
2024-05-09T13:35:48.736Z,3.25
2024-05-09T13:38:19.849Z,3.22
2024-05-09T13:40:47.788Z,3.30
2024-05-09T13:43:15.201Z,3.05
2024-05-09T13:45:42.673Z,3.40
2024-05-09T13:48:10.356Z,2.70
2024-05-09T13:50:38.944Z,2.80
2024-05-09T13:53:07.477Z,2.67
2024-05-09T13:55:38.795Z,2.50
2024-05-09T13:58:07.203Z,2.90
2024-05-09T14:00:44.203Z,2.47
2024-05-09T14:03:17.610Z,2.80
2024-05-09T14:05:46.892Z,2.90
2024-05-09T14:08:15.596Z,2.80
2024-05-09T14:10:45.090Z,2.92
2024-05-09T14:13:13.415Z,2.83
2024-05-09T14:15:41.015Z,2.60
2024-05-09T14:18:12.322Z,2.65
2024-05-09T14:23:08.291Z,2.72
2024-05-09T14:25:38.875Z,2.85
2024-05-09T14:28:09.332Z,3.00
2024-05-09T14:30:38.131Z,2.88
2024-05-09T14:33:07.861Z,2.40
2024-05-09T14:35:37.374Z,3.10
2024-05-09T14:38:04.833Z,2.70
2024-05-09T14:40:40.671Z,3.30
2024-05-09T14:43:12.728Z,3.20
2024-05-09T14:45:40.909Z,2.60
2024-05-09T14:48:08.826Z,2.53
2024-05-09T14:50:39.080Z,2.55
2024-05-09T14:53:12.415Z,3.00
2024-05-09T14:55:41.507Z,3.03
2024-05-09T14:58:10.690Z,2.60
2024-05-09T15:00:44.484Z,3.28
2024-05-09T15:03:15.242Z,2.53
2024-05-09T15:05:42.295Z,2.50
2024-05-09T15:08:09.434Z,2.70
2024-05-09T15:10:37.335Z,2.70
2024-05-09T15:13:07.286Z,3.15
2024-05-09T15:15:35.964Z,2.60
2024-05-09T15:18:05.561Z,2.90
2024-05-09T15:20:36.175Z,2.60
2024-05-09T15:23:06.681Z,2.80
2024-05-09T15:25:35.120Z,2.55
2024-05-09T15:28:02.376Z,2.92
2024-05-09T15:30:32.315Z,2.70
2024-05-09T15:33:03.845Z,3.38
2024-05-09T15:35:31.934Z,2.80
2024-05-09T15:37:59.805Z,3.33
2024-05-09T15:40:35.711Z,2.83
2024-05-09T15:43:07.913Z,2.75
2024-05-09T15:45:35.762Z,2.80
2024-05-09T15:48:04.003Z,2.72
2024-05-09T15:50:38.088Z,2.90
2024-05-09T15:53:09.592Z,2.63
2024-05-09T15:55:37.748Z,2.90
2024-05-09T15:58:05.636Z,2.88
2024-05-09T16:00:38.089Z,2.97
2024-05-09T16:03:09.866Z,2.85
2024-05-09T16:05:37.894Z,2.88
2024-05-09T16:08:06.415Z,2.85
2024-05-09T16:10:34.883Z,2.90
2024-05-09T16:13:03.683Z,2.60
2024-05-09T16:15:31.734Z,3.20
2024-05-09T16:17:59.583Z,3.28
2024-05-09T16:20:35.019Z,2.95
2024-05-09T16:23:07.817Z,3.17
2024-05-09T16:25:35.059Z,2.80
2024-05-09T16:28:07.043Z,3.20
2024-05-09T16:30:36.922Z,3.67
2024-05-09T16:33:05.238Z,3.42
2024-05-09T16:35:34.263Z,3.25
2024-05-09T16:38:03.214Z,3.17
2024-05-09T16:40:37.351Z,4.60
2024-05-09T16:43:11.141Z,3.10
2024-05-09T16:45:40.742Z,3.05
2024-05-09T16:48:08.781Z,3.33
2024-05-09T16:50:36.747Z,3.55
2024-05-09T16:53:05.828Z,3.42
2024-05-09T16:55:33.727Z,2.97
2024-05-09T16:58:01.776Z,2.90
2024-05-09T17:00:38.496Z,3.40
2024-05-09T17:03:12.189Z,3.30
2024-05-09T17:05:40.464Z,3.03
2024-05-09T17:08:08.468Z,3.22
2024-05-09T17:10:38.307Z,2.90
2024-05-09T17:13:07.061Z,3.10
2024-05-09T17:15:37.333Z,3.00
2024-05-09T17:18:07.214Z,3.08
2024-05-09T17:20:36.877Z,7.60
2024-05-09T17:23:12.641Z,10.18
2024-05-09T17:25:40.724Z,21.60
2024-05-09T17:28:08.687Z,21.00
2024-05-09T17:30:38.768Z,29.77
2024-05-09T17:33:09.614Z,15.00
2024-05-09T17:35:37.948Z,6.82
2024-05-09T17:38:08.308Z,4.88
2024-05-09T17:40:37.566Z,3.55
2024-05-09T17:43:08.597Z,3.60
2024-05-09T17:45:38.689Z,3.33
2024-05-09T17:48:07.175Z,3.15
2024-05-09T17:50:36.631Z,4.57
2024-05-09T17:53:06.165Z,3.97
2024-05-09T17:55:33.603Z,3.10
2024-05-09T17:58:01.155Z,3.20
2024-05-09T18:00:36.739Z,3.20
2024-05-09T18:03:07.660Z,2.88
2024-05-09T18:05:38.630Z,3.00
2024-05-09T18:08:09.026Z,4.30
2024-05-09T18:10:38.919Z,5.82
2024-05-09T18:13:09.038Z,3.60
2024-05-09T18:15:36.555Z,3.88
2024-05-09T18:18:04.621Z,3.05
2024-05-09T18:20:40.476Z,4.57
2024-05-09T18:23:13.564Z,5.03
2024-05-09T18:25:41.133Z,4.00
2024-05-09T18:28:08.796Z,4.65
2024-05-09T18:30:37.147Z,3.92
2024-05-09T18:33:07.766Z,3.95
2024-05-09T18:35:36.416Z,3.30
2024-05-09T18:38:06.831Z,3.00
2024-05-09T18:40:36.731Z,3.30
2024-05-09T18:43:07.397Z,3.30
2024-05-09T18:45:37.467Z,3.10
2024-05-09T18:48:06.622Z,3.30
2024-05-09T18:50:37.925Z,3.28
2024-05-09T18:53:08.323Z,5.75
2024-05-09T18:55:35.530Z,4.00
2024-05-09T18:58:04.493Z,3.53
2024-05-09T19:00:36.065Z,3.42
2024-05-09T19:03:11.725Z,3.35
2024-05-09T19:05:42.180Z,3.50
2024-05-09T19:08:10.363Z,4.25
2024-05-09T19:10:39.275Z,3.63
2024-05-09T19:13:12.594Z,3.75
2024-05-09T19:15:42.207Z,3.70
2024-05-09T19:18:11.802Z,3.78
2024-05-09T19:20:39.426Z,3.65
2024-05-09T19:23:07.267Z,3.90
2024-05-09T19:25:35.523Z,3.50
2024-05-09T19:28:03.929Z,3.60
2024-05-09T19:30:38.562Z,3.20
2024-05-09T19:33:09.856Z,4.00
2024-05-09T19:35:37.936Z,3.90
2024-05-09T19:38:05.510Z,4.00
2024-05-09T19:40:34.161Z,4.07
2024-05-09T19:43:03.309Z,3.65
2024-05-09T19:45:32.729Z,3.50
2024-05-09T19:48:00.189Z,3.85
2024-05-09T19:50:36.802Z,4.20
2024-05-09T19:53:09.866Z,3.60
2024-05-09T19:55:37.143Z,3.63
2024-05-09T19:58:05.672Z,3.53
2024-05-09T20:00:40.632Z,4.00
2024-05-09T20:03:11.321Z,3.70
2024-05-09T20:05:39.380Z,3.70
2024-05-09T20:08:07.298Z,3.70
2024-05-09T20:10:35.876Z,4.00
2024-05-09T20:13:06.658Z,3.53
2024-05-09T20:15:36.411Z,3.60
2024-05-09T20:18:04.614Z,4.20
2024-05-09T20:20:38.212Z,3.85
2024-05-09T20:23:09.671Z,3.95
2024-05-09T20:25:36.860Z,3.80
2024-05-09T20:28:04.411Z,3.97
2024-05-09T20:30:34.231Z,3.72
2024-05-09T20:33:04.537Z,3.83
2024-05-09T20:35:33.097Z,4.10
2024-05-09T20:38:01.140Z,3.47
2024-05-09T20:40:33.170Z,3.70
2024-05-09T20:43:04.095Z,4.20
2024-05-09T20:45:31.354Z,3.80
2024-05-09T20:47:58.533Z,3.95
2024-05-09T20:50:35.760Z,4.03
2024-05-09T20:53:13.096Z,3.72
2024-05-09T20:55:41.672Z,4.45
2024-05-09T20:58:09.706Z,4.25
2024-05-09T21:00:40.736Z,4.28
2024-05-09T21:03:11.709Z,3.88
2024-05-09T21:05:39.842Z,4.50
2024-05-09T21:08:07.812Z,4.60
2024-05-09T21:10:36.222Z,4.55
2024-05-09T21:13:04.280Z,4.30
2024-05-09T21:15:32.066Z,3.92
2024-05-09T21:17:59.501Z,4.50
2024-05-09T21:22:57.693Z,4.50
2024-05-09T21:25:24.834Z,4.88
2024-05-09T21:27:52.746Z,4.72
2024-05-09T21:30:31.573Z,4.85
2024-05-09T21:33:09.364Z,4.60
2024-05-09T21:35:37.614Z,4.95
2024-05-09T21:38:04.911Z,4.75
2024-05-09T21:40:35.116Z,4.60
2024-05-09T21:43:04.896Z,4.43
2024-05-09T21:45:32.501Z,4.43
2024-05-09T21:47:59.886Z,4.30
2024-05-09T21:50:35.784Z,4.25
2024-05-09T21:53:07.381Z,4.32
2024-05-09T21:55:34.639Z,4.22
2024-05-09T21:58:01.887Z,4.30
2024-05-09T22:00:35.777Z,4.43
2024-05-09T22:03:06.873Z,4.70
2024-05-09T22:05:34.614Z,4.30
2024-05-09T22:08:01.792Z,4.07
2024-05-09T22:10:34.061Z,4.07
2024-05-09T22:13:04.264Z,4.13
2024-05-09T22:15:35.685Z,4.50
2024-05-09T22:18:03.809Z,4.30
2024-05-09T22:20:36.872Z,4.35
2024-05-09T22:23:07.124Z,4.75
2024-05-09T22:25:34.487Z,4.53
2024-05-09T22:28:02.464Z,4.53
2024-05-09T22:32:59.642Z,4.88
2024-05-09T22:35:26.676Z,4.68
2024-05-09T22:37:53.730Z,4.50
2024-05-09T22:40:28.440Z,4.82
2024-05-09T22:43:04.863Z,4.45
2024-05-09T22:45:31.952Z,4.55
2024-05-09T22:47:59.355Z,4.93
2024-05-09T22:50:30.600Z,4.70
2024-05-09T22:52:59.647Z,4.43
2024-05-09T22:55:26.614Z,4.40
2024-05-09T22:57:53.553Z,4.70
2024-05-09T23:00:29.192Z,4.55
2024-05-09T23:03:02.626Z,4.65
2024-05-09T23:05:31.848Z,4.85
2024-05-09T23:08:00.009Z,4.80
2024-05-09T23:10:32.490Z,5.10
2024-05-09T23:13:03.899Z,4.50
2024-05-09T23:15:31.291Z,4.55
2024-05-09T23:17:58.926Z,4.80
2024-05-09T23:20:33.711Z,4.97
2024-05-09T23:23:06.513Z,4.88
2024-05-09T23:25:33.785Z,4.40
2024-05-09T23:28:00.913Z,4.90
2024-05-09T23:30:34.714Z,4.43
2024-05-09T23:33:06.302Z,4.20
2024-05-09T23:35:33.442Z,4.45
2024-05-09T23:38:00.509Z,4.40
2024-05-09T23:40:37.410Z,4.50
2024-05-09T23:43:08.444Z,4.32
2024-05-09T23:45:35.854Z,4.47
2024-05-09T23:48:03.603Z,6.05
2024-05-09T23:50:35.139Z,4.15
2024-05-09T23:53:06.335Z,4.20
2024-05-09T23:55:34.205Z,4.47
2024-05-09T23:58:01.251Z,4.30
